Fall River, Kansas
Current Conditions -  °F | °C
As of 9:52 AM on Thursday 30 Oct 2014 (Local Time) from KCNU Reporting Station
Clear Clear  
Wind Chill: 57°   Ceiling: Unl
Heat Index: 57°   Visibility: 10mi
Dew Point: 43°   Wind: 14mph
Humidity: 59%   Direction: 240°WSW
Pressure: 30.05"   Gusts: NA
Location:  37.61°N, 96.03°W
Report Text: KCNU 301452Z AUTO 24012KT 10SM CLR 14/06 A3005 RMK AO2 SLP175 T01390061 53004
Loading
Personal Weather Stations






























Interactive Weather Map
Tropical Storm Tracking
New forecast layout! Learn more

10-Day Weather Forecast

Advertisements
Track Severe Weather on mobile